Time;durP1;ratioP1;P1;durP2;ratioP2;P2;SDS_P1;SDS_P2;PMS_P1;PMS_P2;Temp;Humidity;BMP_temperature;BMP_pressure;BME280_temperature;BME280_humidity;BME280_pressure;Samples;Min_cycle;Max_cycle;Signal;HPM_P1;HPM_P2
2023/04/29 00:00:21;;;;;;;;;21.67;18.00;;;;;15.56;64.91;101343.47;5096880;27;45693;-39
2023/04/29 00:02:46;;;;;;;;;16.67;14.33;;;;;15.50;64.85;101332.53;5096838;27;45859;-41
2023/04/29 00:05:12;;;;;;;;;16.00;13.33;;;;;15.52;64.99;101341.28;5096875;27;45635;-40
2023/04/29 00:07:37;;;;;;;;;16.00;15.33;;;;;15.49;64.90;101334.38;5099452;27;45513;-40
2023/04/29 00:10:03;;;;;;;;;17.33;13.00;;;;;15.46;64.84;101334.72;5100226;27;45352;-40
2023/04/29 00:12:30;;;;;;;;;14.00;12.00;;;;;15.43;65.14;101330.53;5100152;27;45334;-40
2023/04/29 00:14:56;;;;;;;;;9.67;7.00;;;;;15.39;65.16;101336.38;5100394;27;45237;-39
2023/04/29 00:17:21;;;;;;;;;13.00;12.00;;;;;15.35;65.44;101338.56;5100465;27;45496;-40
2023/04/29 00:19:47;;;;;;;;;15.33;8.67;;;;;15.26;65.50;101327.97;5100031;27;45304;-40
2023/04/29 00:22:12;;;;;;;;;16.67;11.33;;;;;15.30;65.79;101338.22;5100062;27;45338;-41
2023/04/29 00:24:38;;;;;;;;;12.33;10.00;;;;;15.28;65.66;101334.84;5100234;27;45392;-40
2023/04/29 00:27:05;;;;;;;;;8.67;7.00;;;;;15.28;65.66;101331.31;5099961;27;45472;-40
2023/04/29 00:29:30;;;;;;;;;11.00;8.67;;;;;15.25;66.05;101328.97;5099906;27;45368;-41
2023/04/29 00:31:55;;;;;;;;;7.67;5.33;;;;;15.25;65.69;101328.97;5099806;27;45420;-40
2023/04/29 00:34:21;;;;;;;;;13.67;8.67;;;;;15.24;65.88;101325.44;5100177;27;45389;-40
2023/04/29 00:36:46;;;;;;;;;8.00;7.00;;;;;15.15;66.13;101316.53;5100237;27;45635;-40
2023/04/29 00:39:12;;;;;;;;;13.33;10.00;;;;;15.16;66.12;101315.53;5099432;27;51417;-40
2023/04/29 00:41:38;;;;;;;;;11.67;8.00;;;;;15.17;66.41;101321.75;5099626;27;45342;-38
2023/04/29 00:44:03;;;;;;;;;11.67;10.00;;;;;15.15;66.28;101318.38;5099503;27;45420;-40
2023/04/29 00:46:28;;;;;;;;;11.00;9.00;;;;;15.09;65.91;101309.16;5099987;27;45219;-40
2023/04/29 00:48:54;;;;;;;;;7.33;7.33;;;;;15.11;66.63;101320.53;5099734;27;46223;-39
2023/04/29 00:51:20;;;;;;;;;9.33;7.33;;;;;15.09;66.20;101316.38;5099601;27;45259;-39
2023/04/29 00:53:45;;;;;;;;;14.67;8.33;;;;;15.03;66.59;101317.84;5099924;27;45273;-39
2023/04/29 00:56:13;;;;;;;;;10.33;9.00;;;;;15.04;66.63;101319.50;5099970;27;45234;-40
2023/04/29 00:58:39;;;;;;;;;7.33;7.33;;;;;15.03;66.82;101315.16;5099476;27;45479;-38
2023/04/29 01:01:05;;;;;;;;;9.00;8.00;;;;;15.01;66.58;101314.50;5099385;27;45425;-41
2023/04/29 01:03:31;;;;;;;;;15.00;9.67;;;;;14.98;66.67;101321.00;5099628;27;45384;-40
2023/04/29 01:06:20;;;;;;;;;15.33;9.00;;;;;14.96;66.46;101320.34;5099706;27;45335;-40
2023/04/29 01:09:12;;;;;;;;;8.00;8.00;;;;;14.94;66.84;101308.09;5080826;27;47228;-40
2023/04/29 01:12:05;;;;;;;;;7.33;7.33;;;;;14.92;66.48;101320.81;5036174;28;45439;-39
2023/04/29 01:14:33;;;;;;;;;8.00;8.00;;;;;14.89;66.83;101319.28;5036251;28;45549;-40
2023/04/29 01:17:10;;;;;;;;;11.00;10.33;;;;;14.88;67.01;101322.13;5036268;28;45330;-40
2023/04/29 01:19:45;;;;;;;;;10.00;10.00;;;;;14.86;67.14;101322.28;5035063;28;45374;-40
2023/04/29 01:22:12;;;;;;;;;6.00;6.00;;;;;14.85;67.29;101314.41;5035844;28;45488;-40
2023/04/29 01:24:38;;;;;;;;;10.33;9.33;;;;;14.84;67.38;101310.06;5036324;28;45322;-41
2023/04/29 01:27:25;;;;;;;;;8.67;7.67;;;;;14.81;66.64;101313.06;5036150;28;45436;-39
2023/04/29 01:29:58;;;;;;;;;11.00;5.67;;;;;14.79;67.00;101315.91;5034576;28;46314;-42
2023/04/29 01:32:32;;;;;;;;;9.00;7.33;;;;;14.72;66.96;101310.34;5035898;28;45637;-39
2023/04/29 01:35:22;;;;;;;;;7.33;5.67;;;;;14.76;67.15;101324.25;5035927;28;45338;-41
2023/04/29 01:37:53;;;;;;;;;6.67;5.00;;;;;14.73;67.56;101328.06;5035956;28;45627;-41
2023/04/29 01:40:24;;;;;;;;;7.00;7.00;;;;;14.72;67.45;101326.41;5035932;28;45532;-41
2023/04/29 01:43:08;;;;;;;;;8.33;8.00;;;;;14.70;67.01;101317.69;5035590;28;45387;-41
2023/04/29 01:45:40;;;;;;;;;9.33;5.00;;;;;14.68;67.31;101306.31;5035448;28;45277;-40
2023/04/29 01:48:05;;;;;;;;;9.33;9.33;;;;;14.67;67.58;101304.63;5050565;27;45503;-40
2023/04/29 01:50:31;;;;;;;;;6.00;6.00;;;;;14.67;67.84;101306.47;5098506;27;46900;-40
2023/04/29 01:52:57;;;;;;;;;7.00;7.00;;;;;14.67;68.11;101311.81;5098703;27;45309;-39
2023/04/29 01:55:22;;;;;;;;;7.67;6.33;;;;;14.67;67.40;101311.81;5098866;27;45334;-40
2023/04/29 01:57:48;;;;;;;;;6.00;5.00;;;;;14.66;68.01;101310.13;5099042;27;45386;-40
2023/04/29 02:00:13;;;;;;;;;8.67;8.67;;;;;14.63;67.64;101313.16;5098536;27;50325;-39
2023/04/29 02:02:38;;;;;;;;;5.33;5.33;;;;;14.63;68.00;101315.81;5098611;27;45429;-39
2023/04/29 02:05:04;;;;;;;;;8.33;8.33;;;;;14.60;67.66;101311.63;5098554;27;45290;-39
2023/04/29 02:07:29;;;;;;;;;6.67;5.00;;;;;14.58;67.67;101313.63;5098958;27;45351;-40
2023/04/29 02:09:55;;;;;;;;;4.00;4.00;;;;;14.54;67.83;101317.63;5098345;27;46273;-40
2023/04/29 02:12:20;;;;;;;;;7.33;5.00;;;;;14.54;68.02;101314.06;5098346;27;45340;-41
2023/04/29 02:14:46;;;;;;;;;6.00;6.00;;;;;14.46;68.28;101299.63;5098371;27;45351;-40
2023/04/29 02:17:12;;;;;;;;;6.00;5.67;;;;;14.51;67.63;101309.06;5080203;27;45373;-40
2023/04/29 02:19:38;;;;;;;;;9.33;6.33;;;;;14.48;68.23;101312.84;5098231;27;46163;-40
2023/04/29 02:22:03;;;;;;;;;6.67;6.67;;;;;14.45;68.15;101311.34;5098222;27;45247;-40
2023/04/29 02:24:28;;;;;;;;;7.33;7.33;;;;;14.46;68.25;101321.03;5098513;27;45546;-41
2023/04/29 02:26:54;;;;;;;;;5.67;5.67;;;;;14.44;68.20;101325.69;5098371;27;45314;-40
2023/04/29 02:29:20;;;;;;;;;7.33;6.67;;;;;14.42;68.71;101326.88;5097839;27;47044;-40
2023/04/29 02:31:46;;;;;;;;;7.67;5.33;;;;;14.42;68.47;101326.88;5098001;27;45348;-41
2023/04/29 02:34:11;;;;;;;;;5.00;4.33;;;;;14.42;68.71;101326.88;5098261;27;45375;-40
2023/04/29 02:36:36;;;;;;;;;9.00;7.00;;;;;14.40;68.59;101316.31;5098117;27;45342;-41
2023/04/29 02:39:01;;;;;;;;;7.67;5.00;;;;;14.35;68.90;101326.66;5097937;27;47354;-40
2023/04/29 02:41:27;;;;;;;;;9.00;7.33;;;;;14.36;68.74;101325.66;5097949;27;45352;-39
2023/04/29 02:43:52;;;;;;;;;8.00;4.00;;;;;14.36;68.52;101322.13;5097457;27;45376;-40
2023/04/29 02:46:18;;;;;;;;;9.00;6.33;;;;;14.32;68.76;101312.75;5097924;27;45356;-39
2023/04/29 02:48:44;;;;;;;;;7.67;6.00;;;;;14.31;68.78;101322.59;5097867;27;45480;-41
2023/04/29 02:51:09;;;;;;;;;8.00;8.00;;;;;14.29;68.99;101321.94;5097756;27;45429;-38
2023/04/29 02:53:35;;;;;;;;;8.33;8.33;;;;;14.29;68.99;101321.09;5097904;27;45357;-39
2023/04/29 02:56:00;;;;;;;;;7.33;5.00;;;;;14.29;68.75;101316.59;5098222;27;45333;-39
2023/04/29 02:58:25;;;;;;;;;8.33;6.67;;;;;14.28;69.26;101317.56;5097513;27;46382;-39
2023/04/29 03:00:51;;;;;;;;;9.33;8.00;;;;;14.27;69.08;101323.91;5097830;27;45153;-39
2023/04/29 03:03:16;;;;;;;;;8.33;8.00;;;;;14.26;69.42;101327.59;5079479;27;45284;-40
2023/04/29 03:05:42;;;;;;;;;5.67;4.00;;;;;14.25;69.05;101325.94;5097874;27;45372;-39
2023/04/29 03:08:09;;;;;;;;;9.33;8.33;;;;;14.23;69.24;101323.38;5097817;27;45236;-39
2023/04/29 03:10:34;;;;;;;;;6.33;6.33;;;;;14.12;69.32;101314.78;5097710;27;45406;-39
2023/04/29 03:13:00;;;;;;;;;5.33;4.00;;;;;14.21;68.96;101321.88;5097459;27;45418;-39
2023/04/29 03:15:25;;;;;;;;;7.00;7.00;;;;;14.19;69.31;101329.22;5079451;27;45445;-38
2023/04/29 03:17:51;;;;;;;;;5.67;4.33;;;;;14.18;69.71;101327.53;5097584;27;46339;-48
2023/04/29 03:20:16;;;;;;;;;8.33;8.00;;;;;14.16;69.58;101329.53;5097450;27;45391;-40
2023/04/29 03:22:41;;;;;;;;;7.00;6.33;;;;;14.15;69.80;101335.88;5097442;27;45370;-39
2023/04/29 03:25:09;;;;;;;;;9.33;7.33;;;;;14.13;69.63;101343.22;5097546;27;45330;-38
2023/04/29 03:27:34;;;;;;;;;8.00;7.33;;;;;14.11;69.97;101351.38;5097164;27;46246;-38
2023/04/29 03:30:00;;;;;;;;;8.33;7.00;;;;;14.11;69.93;101346.03;5097174;27;45298;-41
2023/04/29 03:32:25;;;;;;;;;8.00;8.00;;;;;14.11;69.98;101348.72;5097363;27;45560;-41
2023/04/29 03:34:51;;;;;;;;;7.67;7.00;;;;;14.12;69.92;101357.59;5097549;27;46013;-40
2023/04/29 03:37:16;;;;;;;;;6.33;5.00;;;;;14.12;69.95;101350.41;5096226;27;45997;-40
2023/04/29 03:39:41;;;;;;;;;7.33;6.33;;;;;14.10;69.93;101351.56;5078896;27;45298;-40
2023/04/29 03:42:07;;;;;;;;;7.00;7.00;;;;;14.15;69.53;101360.78;5080751;27;45307;-39
2023/04/29 03:44:32;;;;;;;;;11.67;10.00;;;;;14.17;69.72;101353.47;5100920;27;45307;-40
2023/04/29 03:46:58;;;;;;;;;12.00;9.00;;;;;14.21;69.41;101360.19;5100523;27;46168;-41
2023/04/29 03:49:24;;;;;;;;;10.67;8.00;;;;;14.25;69.14;101349.16;5100754;27;45333;-40
2023/04/29 03:51:50;;;;;;;;;8.33;7.67;;;;;14.24;69.24;101345.63;5100874;27;45415;-41
2023/04/29 03:54:16;;;;;;;;;12.00;11.33;;;;;14.25;68.94;101349.16;5100881;27;45372;-39
2023/04/29 03:56:42;;;;;;;;;17.00;12.00;;;;;14.26;68.78;101354.34;5100634;27;45377;-40
2023/04/29 03:59:07;;;;;;;;;12.33;12.00;;;;;14.28;69.04;101354.19;5100276;27;45503;-40
2023/04/29 04:01:32;;;;;;;;;12.00;12.00;;;;;14.18;68.84;101340.91;5100559;27;46183;-40
2023/04/29 04:03:58;;;;;;;;;15.00;14.00;;;;;14.20;68.73;101339.78;5100934;27;45337;-40
2023/04/29 04:06:23;;;;;;;;;20.67;19.33;;;;;14.29;68.85;101363.91;5100204;27;46129;-40
2023/04/29 04:08:48;;;;;;;;;15.33;15.00;;;;;14.31;68.94;101368.09;5100606;27;45431;-40
2023/04/29 04:11:14;;;;;;;;;15.33;13.67;;;;;14.33;68.49;101373.31;5100606;27;45366;-40
2023/04/29 04:13:43;;;;;;;;;19.33;16.00;;;;;14.27;68.89;101355.19;5100373;27;45322;-40
2023/04/29 04:16:12;;;;;;;;;18.33;14.33;;;;;14.32;68.45;101371.63;5099944;27;45495;-41
2023/04/29 04:18:38;;;;;;;;;18.00;12.33;;;;;14.31;68.64;101372.63;5100096;27;45565;-40
2023/04/29 04:21:11;;;;;;;;;21.33;15.33;;;;;14.27;68.32;101385.47;5100284;27;45390;-40
2023/04/29 04:23:39;;;;;;;;;17.67;13.67;;;;;14.23;68.38;101379.59;5100404;27;45326;-40
2023/04/29 04:26:05;;;;;;;;;17.00;14.67;;;;;14.23;68.32;101381.41;5099913;27;47015;-41
2023/04/29 04:28:31;;;;;;;;;15.00;15.00;;;;;14.14;68.65;101372.47;5100053;27;45431;-39
2023/04/29 04:30:56;;;;;;;;;16.33;12.33;;;;;14.18;68.69;101392.59;5115543;27;46137;-39
2023/04/29 04:33:21;;;;;;;;;19.00;16.00;;;;;14.05;68.57;101375.25;5100249;27;45560;-40
2023/04/29 04:35:47;;;;;;;;;14.00;13.33;;;;;14.11;68.50;101396.88;5099896;27;45234;-40
2023/04/29 04:38:14;;;;;;;;;17.67;13.67;;;;;14.08;69.13;101396.34;5099999;27;45279;-40
2023/04/29 04:40:43;;;;;;;;;14.67;13.00;;;;;14.05;68.72;101397.50;5099901;27;45503;-40
2023/04/29 04:43:08;;;;;;;;;14.67;14.33;;;;;14.06;69.55;101395.66;5100232;27;45441;-40
2023/04/29 04:45:34;;;;;;;;;14.67;14.33;;;;;14.04;69.38;101395.81;5099314;27;46185;-41
2023/04/29 04:47:59;;;;;;;;;12.33;11.33;;;;;14.05;69.18;101399.34;5099953;27;45306;-40
2023/04/29 04:50:28;;;;;;;;;17.00;16.00;;;;;14.04;69.22;101401.16;5099960;27;45345;-40
2023/04/29 04:52:56;;;;;;;;;17.33;14.33;;;;;14.03;69.36;101403.97;5099020;27;45254;-40
2023/04/29 04:55:22;;;;;;;;;23.00;16.67;;;;;14.03;69.61;101407.53;5099338;27;46985;-39
2023/04/29 04:57:48;;;;;;;;;17.33;15.00;;;;;13.87;69.24;101388.63;5099381;27;45381;-41
2023/04/29 05:00:14;;;;;;;;;16.67;13.33;;;;;14.03;69.59;101430.72;5099486;27;45259;-42
2023/04/29 05:02:39;;;;;;;;;17.33;14.00;;;;;14.01;69.17;101422.03;5099675;27;45325;-40
2023/04/29 05:05:05;;;;;;;;;20.00;15.33;;;;;13.91;69.79;101409.56;5099420;27;45486;-40
2023/04/29 05:07:31;;;;;;;;;20.00;15.00;;;;;13.94;69.54;101424.47;5099463;27;45450;-39
2023/04/29 05:09:57;;;;;;;;;16.00;14.00;;;;;13.97;68.89;101427.69;5081353;27;45332;-40
2023/04/29 05:12:24;;;;;;;;;22.00;15.00;;;;;13.99;69.73;101432.91;5099676;27;45325;-40
2023/04/29 05:14:52;;;;;;;;;21.33;17.00;;;;;13.97;69.77;101435.69;5098999;27;47230;-40
2023/04/29 05:17:17;;;;;;;;;23.67;18.00;;;;;14.01;69.25;101443.44;5099180;27;45527;-38
2023/04/29 05:19:43;;;;;;;;;16.33;13.00;;;;;14.02;69.64;101450.47;5099437;27;45491;-38
2023/04/29 05:22:08;;;;;;;;;15.33;14.67;;;;;14.02;69.44;101448.63;5099547;27;45491;-40
2023/04/29 05:24:33;;;;;;;;;16.67;14.67;;;;;14.01;70.09;101446.09;5099158;27;46265;-46
2023/04/29 05:26:59;;;;;;;;;25.33;16.33;;;;;14.02;70.01;101450.47;5098846;27;45288;-45
2023/04/29 05:29:26;;;;;;;;;16.67;14.67;;;;;14.00;69.51;101455.13;5099177;27;45341;-40
2023/04/29 05:31:51;;;;;;;;;18.33;14.67;;;;;13.97;69.84;101461.63;5099568;27;45383;-40
2023/04/29 05:34:16;;;;;;;;;13.33;7.00;;;;;13.97;70.00;101464.28;5098893;27;46162;-40
2023/04/29 05:36:42;;;;;;;;;13.67;13.00;;;;;14.01;70.00;101470.19;5098998;27;45477;-40
2023/04/29 05:39:07;;;;;;;;;18.00;16.33;;;;;13.97;70.11;101469.63;5099178;27;45427;-39
2023/04/29 05:41:32;;;;;;;;;20.00;17.00;;;;;13.94;69.96;101476.13;5099113;27;45336;-39
2023/04/29 05:43:58;;;;;;;;;19.67;16.33;;;;;13.92;69.71;101485.31;5098813;27;47027;-39
2023/04/29 05:46:23;;;;;;;;;16.33;13.00;;;;;13.87;69.86;101482.25;5098416;27;51784;-41
2023/04/29 05:48:48;;;;;;;;;15.00;14.67;;;;;13.83;70.27;101488.88;5098903;27;45213;-41
2023/04/29 05:51:14;;;;;;;;;13.00;11.33;;;;;13.81;69.42;101488.19;5099146;27;45215;-40
2023/04/29 05:53:39;;;;;;;;;18.00;13.00;;;;;13.77;70.42;101497.50;5098678;27;45329;-40
2023/04/29 05:56:07;;;;;;;;;17.33;14.67;;;;;13.68;70.90;101485.84;5098690;27;45426;-40
2023/04/29 05:58:33;;;;;;;;;14.67;10.67;;;;;13.79;70.86;101498.19;5098313;27;45373;-39
2023/04/29 06:00:59;;;;;;;;;16.00;14.00;;;;;13.82;70.54;101497.88;5098494;27;45419;-38
2023/04/29 06:03:24;;;;;;;;;15.00;14.00;;;;;13.77;70.85;101489.47;5097805;27;45402;-39
2023/04/29 06:05:50;;;;;;;;;18.33;13.00;;;;;13.88;70.47;101500.81;5098160;27;45392;-40
2023/04/29 06:08:15;;;;;;;;;23.00;15.33;;;;;13.87;70.97;101500.97;5098763;27;45361;-39
2023/04/29 06:10:40;;;;;;;;;17.00;12.67;;;;;13.83;70.64;101505.78;5098753;27;45380;-42
2023/04/29 06:13:06;;;;;;;;;14.67;13.67;;;;;13.84;70.98;101503.94;5098264;27;46943;-39
2023/04/29 06:15:31;;;;;;;;;16.00;16.00;;;;;13.84;71.40;101512.78;5098198;27;45816;-40
2023/04/29 06:17:56;;;;;;;;;18.67;15.33;;;;;13.84;71.09;101515.47;5098453;27;45329;-41
2023/04/29 06:20:22;;;;;;;;;20.67;14.33;;;;;13.84;71.42;101511.97;5098559;27;45156;-40
2023/04/29 06:22:48;;;;;;;;;12.33;12.00;;;;;13.85;70.94;101508.28;5098129;27;46002;-40
2023/04/29 06:25:13;;;;;;;;;13.67;13.67;;;;;13.72;70.57;101498.78;5098178;27;45319;-39
2023/04/29 06:27:39;;;;;;;;;18.33;11.00;;;;;13.85;70.45;101517.16;5098279;27;45305;-39
2023/04/29 06:30:05;;;;;;;;;18.00;14.00;;;;;13.83;71.18;101521.81;5098480;27;45523;-40
2023/04/29 06:32:30;;;;;;;;;16.00;13.00;;;;;13.80;71.15;101505.22;5097958;27;46190;-39
2023/04/29 06:34:55;;;;;;;;;12.33;12.33;;;;;13.81;71.36;101509.56;5079537;27;45382;-39
2023/04/29 06:37:21;;;;;;;;;14.67;12.67;;;;;13.90;71.53;101519.38;5098194;27;45411;-39
2023/04/29 06:39:46;;;;;;;;;14.33;10.33;;;;;13.92;71.65;101520.06;5098422;27;45553;-40
2023/04/29 06:42:12;;;;;;;;;21.00;15.00;;;;;13.95;71.09;101525.97;5097915;27;46217;-39
2023/04/29 06:44:37;;;;;;;;;20.33;14.33;;;;;13.98;71.65;101524.81;5097685;27;45491;-39
2023/04/29 06:47:03;;;;;;;;;14.67;11.67;;;;;13.94;71.10;101507.38;5097970;27;45306;-39
2023/04/29 06:49:28;;;;;;;;;15.00;13.00;;;;;13.93;70.96;101511.88;5098301;27;45336;-39
2023/04/29 06:51:53;;;;;;;;;15.00;13.33;;;;;14.00;71.64;101522.00;5097832;27;45343;-40
2023/04/29 06:54:19;;;;;;;;;18.00;12.33;;;;;14.00;71.13;101522.84;5097880;27;45334;-40
2023/04/29 06:56:44;;;;;;;;;64.75;46.25;;;;;14.01;71.38;101529.88;5097860;27;45442;-40
2023/04/29 06:59:11;;;;;;;;;23.67;16.33;;;;;14.02;71.09;101533.38;5098034;27;45259;-40
2023/04/29 07:01:37;;;;;;;;;21.33;15.67;;;;;14.03;71.06;101535.06;5096326;27;45504;-39
2023/04/29 07:04:03;;;;;;;;;26.00;21.00;;;;;13.97;71.06;101523.13;5097595;27;45389;-39
2023/04/29 07:06:28;;;;;;;;;27.67;18.33;;;;;14.01;70.79;101532.53;5078890;27;45487;-41
2023/04/29 07:08:53;;;;;;;;;27.00;13.33;;;;;14.01;71.28;101545.09;5097703;27;45216;-40
2023/04/29 07:11:19;;;;;;;;;27.67;24.00;;;;;13.95;71.70;101528.66;5097341;27;46239;-40
2023/04/29 07:13:45;;;;;;;;;31.00;22.67;;;;;14.04;71.06;101550.16;5097613;27;45235;-39
2023/04/29 07:16:18;;;;;;;;;25.00;20.67;;;;;14.05;71.17;101555.34;5096513;27;45277;-40
2023/04/29 07:18:44;;;;;;;;;22.33;18.67;;;;;13.66;71.33;101482.50;5097539;27;45318;-39
2023/04/29 07:21:09;;;;;;;;;29.33;22.00;;;;;14.06;71.10;101540.97;5097303;27;46113;-39
2023/04/29 07:23:34;;;;;;;;;33.67;22.33;;;;;14.12;70.91;101552.91;5097306;27;45502;-41
2023/04/29 07:26:15;;;;;;;;;29.00;21.67;;;;;14.14;70.74;101557.09;5097435;27;45455;-39
2023/04/29 07:28:41;;;;;;;;;29.33;24.00;;;;;14.19;70.63;101560.16;5097839;27;45295;-39
2023/04/29 07:31:07;;;;;;;;;25.00;19.67;;;;;13.98;70.48;101524.81;5097110;27;45551;-39
2023/04/29 07:33:34;;;;;;;;;33.67;24.33;;;;;14.18;70.63;101561.16;5097088;27;45188;-40
2023/04/29 07:35:59;;;;;;;;;25.67;19.00;;;;;14.24;70.73;101565.06;5097431;27;45286;-39
2023/04/29 07:38:25;;;;;;;;;27.33;21.00;;;;;14.26;70.28;101565.78;5097327;27;45503;-40
2023/04/29 07:40:50;;;;;;;;;27.00;21.00;;;;;14.28;70.06;101568.28;5097119;27;45992;-39
2023/04/29 07:43:16;;;;;;;;;30.33;20.67;;;;;14.26;70.05;101562.25;5097216;27;45410;-40
2023/04/29 07:45:41;;;;;;;;;31.33;20.67;;;;;14.30;69.78;101566.31;5096748;27;45353;-41
2023/04/29 07:48:06;;;;;;;;;26.33;20.67;;;;;14.30;70.22;101569.84;5097519;27;45350;-39
2023/04/29 07:50:35;;;;;;;;;25.67;22.33;;;;;14.31;70.04;101563.47;5097003;27;46563;-40
2023/04/29 07:53:01;;;;;;;;;25.67;21.67;;;;;14.18;69.86;101549.63;5096220;27;45236;-41
2023/04/29 07:55:28;;;;;;;;;30.33;24.67;;;;;14.31;70.07;101570.66;5097027;27;45207;-40
2023/04/29 07:57:54;;;;;;;;;30.00;24.00;;;;;14.34;70.13;101575.72;5097113;27;45486;-40
2023/04/29 08:00:20;;;;;;;;;35.33;26.33;;;;;14.37;70.24;101570.94;5096730;27;45628;-41
2023/04/29 08:02:46;;;;;;;;;31.67;26.00;;;;;14.40;70.17;101575.94;5096661;27;45488;-40
2023/04/29 08:05:11;;;;;;;;;26.33;24.67;;;;;14.42;70.14;101575.81;5096889;27;45398;-40
2023/04/29 08:07:37;;;;;;;;;41.33;27.00;;;;;14.39;70.42;101576.94;5097269;27;45294;-41
2023/04/29 08:10:02;;;;;;;;;33.33;24.00;;;;;14.39;69.98;101574.28;5096696;27;46451;-40
2023/04/29 08:12:28;;;;;;;;;36.67;20.00;;;;;14.38;69.58;101579.78;5096735;27;45476;-40
2023/04/29 08:14:53;;;;;;;;;38.67;29.67;;;;;14.36;69.90;101579.91;5096926;27;45501;-39
2023/04/29 08:17:18;;;;;;;;;37.67;25.33;;;;;14.34;69.98;101578.41;5096935;27;45475;-39
2023/04/29 08:19:44;;;;;;;;;38.00;29.00;;;;;14.32;69.82;101575.03;5096761;27;45325;-41
2023/04/29 08:22:11;;;;;;;;;37.33;30.00;;;;;14.30;69.95;101582.38;5096667;27;45326;-41
2023/04/29 08:24:36;;;;;;;;;35.00;25.00;;;;;14.32;69.83;101583.06;5096790;27;45357;-40
2023/04/29 08:27:02;;;;;;;;;38.00;28.33;;;;;14.38;70.16;101582.47;5096481;27;45436;-41
2023/04/29 08:29:31;;;;;;;;;32.00;26.67;;;;;14.45;69.76;101584.41;5099383;27;45321;-40
2023/04/29 08:31:57;;;;;;;;;32.67;26.33;;;;;14.48;69.61;101576.06;5099839;27;45378;-40
2023/04/29 08:34:22;;;;;;;;;35.67;26.67;;;;;14.50;69.40;101591.16;5100048;27;45344;-40
2023/04/29 08:36:48;;;;;;;;;32.33;26.67;;;;;14.55;69.61;101587.03;5100395;27;45719;-40
2023/04/29 08:39:13;;;;;;;;;38.00;31.67;;;;;14.64;69.14;101578.06;5099591;27;46946;-40
2023/04/29 08:41:38;;;;;;;;;33.33;28.33;;;;;14.76;68.52;101589.41;5099909;27;45384;-40
2023/04/29 08:44:04;;;;;;;;;37.67;31.67;;;;;14.85;68.23;101585.81;5099944;27;45386;-40
2023/04/29 08:46:31;;;;;;;;;42.00;29.00;;;;;14.92;68.32;101594.06;5099926;27;45498;-39
2023/04/29 08:48:57;;;;;;;;;38.33;30.00;;;;;14.95;67.88;101581.19;5099831;27;46510;-41
2023/04/29 08:51:23;;;;;;;;;36.33;26.67;;;;;15.07;67.44;101587.16;5099611;27;45297;-41
2023/04/29 08:53:48;;;;;;;;;39.33;30.33;;;;;15.12;67.21;101587.50;5099659;27;45361;-42
2023/04/29 08:56:20;;;;;;;;;35.33;30.00;;;;;15.18;67.16;101591.44;5100207;27;45280;-40
2023/04/29 08:58:50;;;;;;;;;37.33;30.33;;;;;15.19;66.67;101591.25;5098278;27;48505;-41
2023/04/29 09:01:17;;;;;;;;;33.33;25.33;;;;;15.18;66.56;101589.59;5099232;27;45784;-40
2023/04/29 09:03:49;;;;;;;;;33.33;25.33;;;;;15.19;66.68;101590.44;5081406;27;45401;-39
2023/04/29 09:06:16;;;;;;;;;34.00;29.00;;;;;15.21;66.61;101594.66;5099816;27;45360;-40
2023/04/29 09:08:41;;;;;;;;;40.33;27.67;;;;;15.27;66.58;101600.38;5099300;27;46373;-39
2023/04/29 09:11:09;;;;;;;;;35.00;31.33;;;;;15.23;66.50;101587.28;5099352;27;45475;-40
2023/04/29 09:13:35;;;;;;;;;38.67;30.67;;;;;15.28;66.32;101604.72;5099473;27;45310;-41
2023/04/29 09:16:00;;;;;;;;;33.67;27.33;;;;;15.29;66.37;101606.41;5099618;27;45781;-40
2023/04/29 09:18:50;;;;;;;;;37.67;27.33;;;;;15.28;66.03;101607.41;5099038;27;45827;-41
2023/04/29 09:21:26;;;;;;;;;40.67;27.33;;;;;15.27;66.07;101611.94;5099209;27;45399;-40
2023/04/29 09:23:54;;;;;;;;;37.00;28.33;;;;;15.26;65.97;101610.25;5099352;27;45537;-42
2023/04/29 09:26:20;;;;;;;;;36.00;27.67;;;;;15.16;65.99;101591.56;5099500;27;45376;-42
2023/04/29 09:28:46;;;;;;;;;42.67;29.00;;;;;15.30;66.02;101608.09;5099120;27;45998;-40
2023/04/29 09:31:12;;;;;;;;;42.33;33.00;;;;;15.34;66.13;101614.84;5098923;27;45243;-38
2023/04/29 09:33:57;;;;;;;;;32.00;29.00;;;;;15.34;66.29;101615.69;5099370;27;45369;-40
2023/04/29 09:36:39;;;;;;;;;40.67;31.33;;;;;15.39;66.00;101615.22;5098843;27;45323;-41
2023/04/29 09:39:10;;;;;;;;;44.00;34.67;;;;;15.43;65.97;101614.72;5098045;27;46685;-41
2023/04/29 09:41:40;;;;;;;;;44.67;27.33;;;;;15.46;65.67;101617.09;5098843;27;45499;-41
2023/04/29 09:44:06;;;;;;;;;40.33;31.00;;;;;15.47;65.85;101613.44;5098609;27;45456;-40
2023/04/29 09:46:33;;;;;;;;;40.00;30.33;;;;;15.50;65.52;101617.59;5098764;27;45379;-41
2023/04/29 09:48:59;;;;;;;;;32.67;26.00;;;;;15.55;65.34;101619.81;5098598;27;45388;-41
2023/04/29 09:51:24;;;;;;;;;33.00;27.67;;;;;15.59;65.11;101618.50;5098167;27;45236;-39
2023/04/29 09:53:51;;;;;;;;;38.33;28.67;;;;;15.64;65.02;101619.75;5098742;27;45298;-39
2023/04/29 09:56:16;;;;;;;;;30.33;26.00;;;;;15.74;64.92;101618.81;5098907;27;45457;-41
2023/04/29 09:58:42;;;;;;;;;43.00;32.33;;;;;15.78;64.74;101623.69;5080312;27;46059;-39
2023/04/29 10:01:08;;;;;;;;;39.33;32.67;;;;;15.83;64.09;101621.38;5080154;27;45414;-40
2023/04/29 10:03:36;;;;;;;;;37.67;32.00;;;;;15.91;63.81;101617.88;5098878;27;45426;-40
2023/04/29 10:06:04;;;;;;;;;38.00;30.67;;;;;16.00;63.34;101624.97;5098641;27;45568;-39
2023/04/29 10:08:30;;;;;;;;;39.67;32.00;;;;;16.06;62.99;101621.66;5098237;27;45304;-40
2023/04/29 10:11:00;;;;;;;;;42.33;31.67;;;;;16.05;62.42;101628.00;5097555;27;45428;-39
2023/04/29 10:13:27;;;;;;;;;46.67;29.33;;;;;16.03;62.44;101619.28;5098531;27;45263;-40
2023/04/29 10:16:28;;;;;;;;;39.67;28.67;;;;;16.07;62.90;101628.69;5098892;27;45358;-41
2023/04/29 10:18:58;;;;;;;;;46.00;31.67;;;;;16.15;62.69;101623.38;5091594;27;45420;-40
2023/04/29 10:21:28;;;;;;;;;34.67;28.67;;;;;16.24;62.83;101613.50;5098247;27;45252;-40
2023/04/29 10:23:56;;;;;;;;;36.67;31.67;;;;;16.29;61.79;101619.22;5098546;27;45435;-40
2023/04/29 10:26:28;;;;;;;;;40.67;35.33;;;;;16.33;61.82;101615.22;5097596;27;45567;-41
2023/04/29 10:28:55;;;;;;;;;35.33;29.00;;;;;16.36;61.59;101622.09;5098040;27;46363;-41
2023/04/29 10:31:21;;;;;;;;;42.33;32.00;;;;;16.33;62.00;101611.69;5097981;27;45337;-40
2023/04/29 10:33:48;;;;;;;;;44.67;35.67;;;;;16.38;61.19;101618.22;5097916;27;45346;-38
2023/04/29 10:36:14;;;;;;;;;42.67;34.33;;;;;16.40;61.15;101616.25;5098445;27;45204;-41
2023/04/29 10:38:45;;;;;;;;;34.67;32.67;;;;;16.47;60.74;101619.09;5097745;27;46431;-41
2023/04/29 10:41:22;;;;;;;;;44.00;31.67;;;;;16.56;60.51;101626.19;5097831;27;45406;-40
2023/04/29 10:43:47;;;;;;;;;37.67;33.67;;;;;16.68;60.12;101626.69;5097717;27;45342;-41
2023/04/29 10:46:25;;;;;;;;;35.33;31.00;;;;;16.80;59.79;101627.25;5097818;27;45580;-39
2023/04/29 10:48:56;;;;;;;;;37.00;28.00;;;;;16.84;58.87;101607.94;5097449;27;46927;-39
2023/04/29 10:51:32;;;;;;;;;34.67;25.67;;;;;17.09;58.71;101627.63;5096448;27;45365;-40
2023/04/29 10:54:02;;;;;;;;;40.00;29.67;;;;;17.25;57.33;101618.72;5097707;27;45249;-40
2023/04/29 10:56:38;;;;;;;;;35.33;30.00;;;;;17.49;57.68;101620.53;5096610;27;45432;-40
2023/04/29 10:59:03;;;;;;;;;36.67;22.67;;;;;17.69;56.49;101619.13;5097491;27;46077;-38
2023/04/29 11:01:45;;;;;;;;;32.33;27.00;;;;;17.86;55.88;101617.28;5097214;27;45451;-39
2023/04/29 11:04:11;;;;;;;;;38.33;24.00;;;;;17.96;55.60;101614.41;5079284;27;45412;-39
2023/04/29 11:06:40;;;;;;;;;36.67;29.00;;;;;17.97;55.12;101618.75;5097610;27;45354;-39
2023/04/29 11:09:26;;;;;;;;;31.00;22.67;;;;;17.97;55.19;101613.38;5097263;27;46275;-40
2023/04/29 11:11:52;;;;;;;;;30.67;27.00;;;;;18.00;55.33;101622.97;5097544;27;45447;-39
2023/04/29 11:14:25;;;;;;;;;36.00;30.00;;;;;17.99;55.58;101621.28;5097520;27;45357;-42